createdAt,value
2019-01-24T05:04:48.714Z,16.60
2019-01-24T05:07:19.249Z,17.60
2019-01-24T05:09:49.807Z,15.05
2019-01-24T05:12:20.398Z,16.93
2019-01-24T05:14:50.978Z,18.60
2019-01-24T05:17:25.723Z,16.05
2019-01-24T05:19:56.296Z,17.67
2019-01-24T05:22:26.804Z,17.20
2019-01-24T05:24:57.428Z,16.50
2019-01-24T05:27:28.088Z,17.57
2019-01-24T05:29:58.714Z,15.80
2019-01-24T05:32:29.318Z,17.55
2019-01-24T05:34:59.926Z,16.62
2019-01-24T05:37:30.468Z,18.02
2019-01-24T05:40:01.041Z,16.27
2019-01-24T05:42:31.635Z,17.67
2019-01-24T05:45:02.244Z,16.62
2019-01-24T05:47:32.822Z,16.45
2019-01-24T05:50:03.401Z,18.42
2019-01-24T05:52:33.971Z,16.65
2019-01-24T05:55:05.181Z,17.40
2019-01-24T05:57:35.754Z,16.32
2019-01-24T06:00:09.916Z,17.65
2019-01-24T06:02:40.527Z,18.65
2019-01-24T06:05:12.282Z,17.95
2019-01-24T06:07:42.902Z,15.83
2019-01-24T06:10:15.274Z,17.40
2019-01-24T06:12:45.851Z,17.42
2019-01-24T06:15:17.129Z,17.57
2019-01-24T06:17:47.942Z,16.97
2019-01-24T06:20:18.464Z,15.95
2019-01-24T06:22:49.066Z,17.57
2019-01-24T06:25:19.700Z,15.85
2019-01-24T06:27:50.280Z,15.80
2019-01-24T06:30:21.549Z,17.90
2019-01-24T06:32:52.162Z,17.50
2019-01-24T06:35:22.723Z,17.15
2019-01-24T06:37:53.650Z,17.32
2019-01-24T06:40:24.239Z,18.20
2019-01-24T06:42:54.881Z,17.23
2019-01-24T06:45:25.986Z,17.48
2019-01-24T06:47:56.563Z,18.60
2019-01-24T06:50:27.130Z,16.70
2019-01-24T06:52:57.764Z,18.40
2019-01-24T06:55:30.032Z,17.40
2019-01-24T06:58:00.608Z,20.17
2019-01-24T07:00:31.251Z,18.60
2019-01-24T07:03:01.831Z,18.70
2019-01-24T07:05:32.380Z,18.52
2019-01-24T07:08:03.074Z,17.63
2019-01-24T07:10:33.671Z,18.95
2019-01-24T07:13:04.283Z,17.12
2019-01-24T07:15:34.887Z,16.48
2019-01-24T07:18:05.540Z,19.73
2019-01-24T07:20:36.086Z,17.75
2019-01-24T07:23:06.759Z,17.82
2019-01-24T07:25:37.411Z,19.07
2019-01-24T07:28:07.983Z,18.60
2019-01-24T07:30:38.649Z,20.62
2019-01-24T07:33:09.226Z,17.95
2019-01-24T07:35:39.753Z,17.80
2019-01-24T07:38:10.421Z,19.12
2019-01-24T07:40:40.996Z,18.10
2019-01-24T07:43:11.567Z,17.48
2019-01-24T07:45:43.180Z,18.27
2019-01-24T07:48:13.780Z,19.77
2019-01-24T07:50:44.413Z,18.17
2019-01-24T07:53:15.004Z,20.20
2019-01-24T07:55:45.667Z,17.80
2019-01-24T07:58:16.285Z,19.15
2019-01-24T08:00:47.018Z,19.65
2019-01-24T08:03:17.626Z,18.55
2019-01-24T08:05:48.177Z,19.57
2019-01-24T08:08:18.804Z,18.23
2019-01-24T08:10:49.347Z,18.60
2019-01-24T08:13:19.902Z,20.93
2019-01-24T08:15:50.703Z,19.55
2019-01-24T08:18:21.481Z,19.37
2019-01-24T08:20:51.993Z,18.75
2019-01-24T08:23:22.552Z,18.00
2019-01-24T08:25:53.005Z,19.15
2019-01-24T08:28:23.612Z,18.17
2019-01-24T08:30:54.249Z,19.12
2019-01-24T08:33:24.817Z,20.32
2019-01-24T08:35:55.353Z,18.73
2019-01-24T08:38:25.952Z,17.15
2019-01-24T08:40:56.485Z,18.87
2019-01-24T08:43:27.189Z,18.87
2019-01-24T08:45:57.833Z,18.55
2019-01-24T08:48:28.548Z,18.02
2019-01-24T08:50:59.102Z,18.60
2019-01-24T08:53:29.838Z,16.90
2019-01-24T08:56:00.403Z,19.67
2019-01-24T08:58:30.926Z,17.42
2019-01-24T09:01:01.662Z,17.65
2019-01-24T09:03:32.263Z,17.42
2019-01-24T09:06:03.537Z,16.20
2019-01-24T09:08:34.222Z,18.70
2019-01-24T09:11:04.774Z,16.77
2019-01-24T09:13:35.361Z,15.88
2019-01-24T09:16:06.170Z,16.87
2019-01-24T09:18:36.698Z,17.13
2019-01-24T09:21:07.716Z,17.77
2019-01-24T09:23:38.334Z,16.37
2019-01-24T09:26:08.912Z,17.73
2019-01-24T09:28:39.465Z,17.77
2019-01-24T09:31:10.135Z,17.50
2019-01-24T09:33:40.638Z,16.17
2019-01-24T09:36:11.243Z,16.90
2019-01-24T10:05:55.358Z,17.67
2019-01-24T10:08:25.964Z,18.05
2019-01-24T10:10:56.591Z,17.32
2019-01-24T10:13:27.264Z,18.67
2019-01-24T10:15:58.090Z,15.72
2019-01-24T10:18:28.630Z,17.73
2019-01-24T10:20:59.310Z,18.57
2019-01-24T10:23:29.983Z,17.42
2019-01-24T10:26:01.104Z,18.73
2019-01-24T10:28:31.810Z,18.25
2019-01-24T10:31:02.366Z,17.75
2019-01-24T10:33:32.907Z,18.35
2019-01-24T10:36:03.500Z,18.73
2019-01-24T10:38:34.106Z,17.57
2019-01-24T10:41:04.661Z,19.23
2019-01-24T10:43:35.256Z,17.82
2019-01-24T10:46:05.904Z,19.37
2019-01-24T10:48:36.462Z,18.90
2019-01-24T10:51:07.050Z,19.20
2019-01-24T10:53:37.622Z,17.65
2019-01-24T10:56:08.435Z,19.30
2019-01-24T10:58:39.001Z,17.82
2019-01-24T11:01:09.636Z,18.50
2019-01-24T11:03:40.172Z,18.85
2019-01-24T11:06:10.808Z,18.60
2019-01-24T11:08:41.352Z,17.85
2019-01-24T11:11:11.859Z,16.95
2019-01-24T11:13:42.479Z,16.52
2019-01-24T11:16:12.993Z,17.42
2019-01-24T11:18:43.550Z,17.40
2019-01-24T11:21:14.113Z,18.02
2019-01-24T11:23:44.713Z,19.23
2019-01-24T11:26:15.230Z,18.95
2019-01-24T11:28:45.799Z,19.57
2019-01-24T11:31:16.341Z,17.87
2019-01-24T11:33:46.828Z,17.05
2019-01-24T11:36:17.442Z,19.05
2019-01-24T11:38:47.938Z,19.05
2019-01-24T11:41:18.541Z,17.95
2019-01-24T11:43:49.145Z,19.20
2019-01-24T11:46:19.646Z,18.10
2019-01-24T11:48:50.132Z,18.17
2019-01-24T11:51:20.664Z,18.75
2019-01-24T11:53:53.172Z,17.87
2019-01-24T11:56:23.670Z,17.73
2019-01-24T11:58:54.169Z,17.50
2019-01-24T12:01:24.795Z,17.90
2019-01-24T12:03:55.399Z,17.37
2019-01-24T12:06:25.961Z,16.90
2019-01-24T12:08:56.508Z,19.52
2019-01-24T12:11:27.077Z,16.45
2019-01-24T12:13:57.595Z,18.40
2019-01-24T12:16:28.255Z,18.80
2019-01-24T12:18:58.814Z,20.00
2019-01-24T12:21:29.398Z,17.87
2019-01-24T12:23:59.965Z,18.65
2019-01-24T12:26:30.587Z,18.33
2019-01-24T12:29:01.095Z,17.15
2019-01-24T12:31:31.711Z,16.97
2019-01-24T12:34:02.343Z,17.52
2019-01-24T12:36:32.868Z,16.67
2019-01-24T12:39:04.767Z,17.42
2019-01-24T12:41:35.333Z,18.10
2019-01-24T12:44:06.247Z,17.92
2019-01-24T12:46:36.898Z,18.00
2019-01-24T12:49:07.535Z,17.90
2019-01-24T12:51:38.683Z,17.98
2019-01-24T12:54:09.354Z,17.77
2019-01-24T12:56:39.924Z,17.30
2019-01-24T12:59:10.520Z,16.97
2019-01-24T13:01:41.061Z,16.80
2019-01-24T13:04:11.615Z,17.37
2019-01-24T13:06:42.145Z,19.25
2019-01-24T13:09:12.729Z,16.52
2019-01-24T13:11:43.273Z,17.87
2019-01-24T13:14:13.822Z,17.65
2019-01-24T13:16:44.336Z,18.15
2019-01-24T13:19:14.867Z,17.80
2019-01-24T13:21:45.411Z,16.90
2019-01-24T13:24:15.931Z,19.03
2019-01-24T13:26:46.484Z,19.32
2019-01-24T13:29:17.141Z,17.37
2019-01-24T13:31:47.627Z,17.05
2019-01-24T13:34:18.231Z,18.40
2019-01-24T13:36:48.788Z,19.02
2019-01-24T13:39:19.371Z,18.90
2019-01-24T13:41:53.012Z,19.70
2019-01-24T13:44:23.611Z,19.87
2019-01-24T13:46:54.155Z,19.12
2019-01-24T13:49:24.805Z,18.65
2019-01-24T13:51:55.507Z,17.40
2019-01-24T13:54:26.075Z,16.65
2019-01-24T13:56:58.341Z,19.43
2019-01-24T13:59:29.037Z,18.15
2019-01-24T14:01:59.665Z,18.95
2019-01-24T14:04:36.888Z,17.95
2019-01-24T14:07:07.419Z,18.70
2019-01-24T14:09:37.935Z,18.12
2019-01-24T14:12:08.468Z,17.82
2019-01-24T14:14:39.021Z,18.25
2019-01-24T14:17:09.562Z,17.95
2019-01-24T14:19:40.095Z,18.45
2019-01-24T14:22:10.611Z,18.40
2019-01-24T14:24:41.162Z,17.82
2019-01-24T14:27:11.742Z,19.15
2019-01-24T14:29:42.292Z,19.10
2019-01-24T14:32:12.795Z,18.57
2019-01-24T14:34:43.390Z,17.20
2019-01-24T14:37:14.449Z,18.05
2019-01-24T14:39:45.072Z,18.50
2019-01-24T14:42:15.605Z,17.87
2019-01-24T14:44:46.153Z,18.27
2019-01-24T14:47:16.723Z,19.30
2019-01-24T14:49:47.337Z,18.67
2019-01-24T14:52:17.876Z,17.65
2019-01-24T14:54:48.461Z,16.67
2019-01-24T14:57:18.986Z,17.82
2019-01-24T14:59:49.559Z,18.62
2019-01-24T15:02:20.056Z,18.17
2019-01-24T15:04:50.584Z,18.57
2019-01-24T15:07:21.167Z,18.73
2019-01-24T15:09:51.696Z,17.83
2019-01-24T15:12:22.259Z,18.35
2019-01-24T15:14:52.784Z,17.37
2019-01-24T15:17:23.416Z,17.12
2019-01-24T15:19:54.003Z,17.00
2019-01-24T15:22:24.540Z,17.42
2019-01-24T15:24:55.041Z,17.17
2019-01-24T15:27:25.681Z,17.55
2019-01-24T15:29:56.224Z,16.27
2019-01-24T15:32:26.789Z,16.77
2019-01-24T15:34:57.341Z,16.23
2019-01-24T15:37:27.916Z,17.10
2019-01-24T15:39:58.491Z,15.95
2019-01-24T15:42:29.125Z,16.67
2019-01-24T15:44:59.662Z,17.42
2019-01-24T15:47:30.244Z,17.90
2019-01-24T15:50:00.847Z,16.57
2019-01-24T15:52:34.089Z,15.20
2019-01-24T15:55:04.061Z,17.60
2019-01-24T15:57:40.680Z,16.93
2019-01-24T16:00:18.171Z,20.43
2019-01-24T16:02:48.801Z,17.60
2019-01-24T16:05:19.474Z,17.50
2019-01-24T16:07:50.179Z,16.77
2019-01-24T16:10:24.531Z,17.55
2019-01-24T16:12:55.457Z,17.30
2019-01-24T16:15:37.960Z,18.15
2019-01-24T16:18:15.351Z,17.17
2019-01-24T16:20:46.490Z,16.90
2019-01-24T16:23:17.038Z,17.02
2019-01-24T16:25:51.068Z,17.27
2019-01-24T16:28:24.768Z,16.85
2019-01-24T16:30:56.647Z,16.40
2019-01-24T16:33:29.250Z,17.52
2019-01-24T16:36:00.033Z,18.20
2019-01-24T16:38:31.610Z,17.90
2019-01-24T16:41:04.474Z,16.52
2019-01-24T16:43:35.554Z,16.82
2019-01-24T16:46:08.065Z,16.82
2019-01-24T16:48:39.823Z,16.60
2019-01-24T16:51:10.972Z,18.12
2019-01-24T16:53:41.906Z,17.50
2019-01-24T16:56:12.595Z,17.10
2019-01-24T16:58:43.227Z,15.90
2019-01-24T17:01:23.102Z,16.42
2019-01-24T17:03:53.821Z,17.45
2019-01-24T17:06:24.757Z,15.60
2019-01-24T17:08:56.615Z,17.25
2019-01-24T17:11:27.246Z,17.12
2019-01-24T17:13:58.061Z,16.42
2019-01-24T17:16:28.766Z,17.32
2019-01-24T17:19:00.554Z,17.80
2019-01-24T17:21:31.605Z,17.73
2019-01-24T17:24:06.269Z,16.40
2019-01-24T17:26:36.917Z,15.93
2019-01-24T17:29:07.970Z,15.45
2019-01-24T17:31:42.951Z,15.95
2019-01-24T17:34:14.003Z,16.17
2019-01-24T17:36:44.748Z,16.12
2019-01-24T17:39:15.362Z,15.20
2019-01-24T17:41:46.880Z,15.75
2019-01-24T17:44:17.589Z,15.20
2019-01-24T17:46:48.502Z,14.65
2019-01-24T17:49:19.092Z,15.70
2019-01-24T17:51:51.240Z,15.83
2019-01-24T17:54:24.412Z,16.40
2019-01-24T17:57:01.357Z,15.98
2019-01-24T17:59:32.163Z,16.82
2019-01-24T18:02:03.702Z,16.37
2019-01-24T18:04:34.830Z,16.93
2019-01-24T18:10:21.772Z,16.65
2019-01-24T18:12:54.322Z,16.00
2019-01-24T18:15:31.302Z,15.50
2019-01-24T18:18:04.598Z,14.53
2019-01-24T18:20:35.813Z,15.40
2019-01-24T18:23:08.377Z,15.10
2019-01-24T18:25:58.640Z,16.15
2019-01-24T18:28:29.475Z,14.73
2019-01-24T18:33:54.592Z,14.85
2019-01-24T18:44:26.994Z,15.72
2019-01-24T18:46:58.699Z,15.58
2019-01-24T18:49:30.177Z,15.80
2019-01-24T18:52:06.198Z,15.78
2019-01-24T18:54:37.940Z,15.53
2019-01-24T18:57:21.807Z,15.72
2019-01-24T19:05:13.568Z,16.77
2019-01-24T19:07:45.126Z,15.38
2019-01-24T19:10:19.989Z,15.85
2019-01-24T19:12:52.898Z,15.08
2019-01-24T19:15:25.990Z,15.13
2019-01-24T19:18:00.015Z,15.32
2019-01-24T19:20:31.737Z,16.13
2019-01-24T19:23:05.576Z,16.32
2019-01-24T19:25:39.091Z,16.60
2019-01-24T19:28:13.839Z,15.03
2019-01-24T19:30:46.716Z,16.00
2019-01-24T19:33:18.569Z,15.20
2019-01-24T19:35:50.606Z,14.40
2019-01-24T19:38:52.881Z,15.58
2019-01-24T19:41:37.099Z,16.05
2019-01-24T19:44:08.271Z,15.58
2019-01-24T19:46:42.001Z,15.48
2019-01-24T19:49:15.948Z,16.40
2019-01-24T19:51:48.216Z,16.57
2019-01-24T19:54:19.024Z,15.55
2019-01-24T19:56:52.371Z,16.00
2019-01-24T19:59:23.108Z,16.48
2019-01-24T20:01:54.302Z,17.12
2019-01-24T20:04:30.183Z,14.70
2019-01-24T20:07:00.812Z,15.10
2019-01-24T20:09:32.790Z,15.70
2019-01-24T20:12:06.563Z,14.45
2019-01-24T20:14:38.343Z,15.40
2019-01-24T20:17:26.394Z,15.43
2019-01-24T20:19:59.667Z,15.65
2019-01-24T20:22:55.975Z,16.10
2019-01-24T20:25:30.135Z,15.88
2019-01-24T20:28:02.807Z,14.30
2019-01-24T20:36:19.987Z,15.38
2019-01-24T20:41:53.440Z,15.50
2019-01-24T20:44:26.775Z,15.18
2019-01-24T20:47:06.433Z,14.93
2019-01-24T20:49:39.867Z,15.90
2019-01-24T20:52:15.969Z,15.40
2019-01-24T20:54:50.054Z,15.72
2019-01-24T20:57:23.364Z,13.15
2019-01-24T21:00:13.671Z,14.40
2019-01-24T21:02:50.378Z,15.05
2019-01-24T21:05:22.491Z,16.32
2019-01-24T21:07:57.748Z,13.98
2019-01-24T21:10:29.448Z,14.50
2019-01-24T21:13:01.219Z,14.30
2019-01-24T21:15:33.538Z,15.15
2019-01-24T21:18:04.963Z,14.33
2019-01-24T21:20:35.528Z,15.45
2019-01-24T21:23:06.528Z,13.75
2019-01-24T21:25:37.053Z,14.35
2019-01-24T21:28:07.773Z,14.53
2019-01-24T21:30:38.898Z,14.80
2019-01-24T21:33:09.848Z,14.33
2019-01-24T21:35:40.397Z,13.13
2019-01-24T21:38:11.350Z,14.33
2019-01-24T21:40:41.906Z,15.37
2019-01-24T21:43:12.546Z,13.48
2019-01-24T21:45:43.068Z,14.33
2019-01-24T21:48:13.591Z,13.90
2019-01-24T21:50:44.180Z,14.60
2019-01-24T21:53:14.759Z,14.50
2019-01-24T21:55:45.404Z,14.47
2019-01-24T21:58:15.994Z,14.73
2019-01-24T22:00:46.720Z,14.38
2019-01-24T22:03:17.340Z,13.68
2019-01-24T22:05:47.955Z,14.20
2019-01-24T22:08:18.622Z,15.60
2019-01-24T22:10:49.214Z,14.18
2019-01-24T22:13:19.808Z,13.40
2019-01-24T22:15:50.406Z,14.03
2019-01-24T22:18:20.988Z,14.65
2019-01-24T22:20:55.582Z,14.20
2019-01-24T22:23:23.876Z,14.90
2019-01-24T22:25:54.494Z,14.10
2019-01-24T22:28:25.055Z,14.20
2019-01-24T22:30:57.834Z,16.30
2019-01-24T22:33:28.451Z,13.78
2019-01-24T22:35:58.990Z,14.98
2019-01-24T22:38:29.577Z,12.97
2019-01-24T22:41:00.143Z,14.43
2019-01-24T22:43:30.723Z,12.95
2019-01-24T22:46:01.327Z,13.23
2019-01-24T22:48:31.915Z,14.43
2019-01-24T22:51:02.484Z,14.58
2019-01-24T22:53:34.592Z,14.55
2019-01-24T22:56:05.304Z,15.03
2019-01-24T22:58:35.830Z,14.20
2019-01-24T23:01:45.751Z,14.60
2019-01-24T23:04:25.424Z,15.00
2019-01-24T23:06:56.050Z,14.60
2019-01-24T23:09:26.542Z,14.40
2019-01-24T23:11:57.066Z,13.97
2019-01-24T23:14:27.686Z,14.38
2019-01-24T23:16:58.260Z,14.38
2019-01-24T23:19:28.849Z,14.60
2019-01-24T23:21:59.456Z,15.75
2019-01-24T23:24:30.000Z,13.68
2019-01-24T23:27:00.543Z,13.32
2019-01-24T23:29:31.114Z,14.10
2019-01-24T23:32:01.652Z,15.28
2019-01-24T23:34:32.199Z,14.60
2019-01-24T23:37:02.780Z,15.68
2019-01-24T23:39:33.362Z,15.20
2019-01-24T23:42:03.947Z,14.33
2019-01-24T23:44:34.530Z,15.43
2019-01-24T23:47:05.112Z,16.10
2019-01-24T23:49:35.623Z,13.57
2019-01-24T23:52:06.277Z,14.43
2019-01-24T23:54:36.816Z,13.80
2019-01-24T23:57:07.359Z,15.00
2019-01-24T23:59:37.943Z,14.80
